Accueil
METAR-TAF:

METAR-TAF

Aéroports :

Base aérienne 107 Villacoublay

Villacoublay, France

latitude: 48-46N, longitude: 002-12E, altitude: 177 m

Observation

Le bulletin a été fait il y a 33 minutes, à 05:00 UTC
Vent 5 kt de nord
Température -2°C
Humidité 86%
Pression 1022 hPa
Visibilité: 6000 m

METAR: LFPV 080500Z AUTO 36005KT 6000 NSC M02/M04 Q1022 NOSIG

Heure: 06:33 (05:33 UTC)

Prévision

Le bulletin a été fait il y a 3 heures et 33 minutes, à 02:00 UTC
Prévision valable du 08 à 03 UTC au 09 à 03 UTC
Vent 6 kt de nord/nord-est
Visibilité 10 km ou plus
pas de nuages en-dessous de 1500 mètres et pas de cumulonimbus.

TAF: LFPV 080200Z 0803/0903 03006KT CAVOK TX07/0815Z TNM01/0806Z

Observations et prévisions météorologiques de plus de 4000 aéroports (messages METAR et TAF).

Les stations disponibles sont représentées par des disques jaunes et rouges sur la carte.

Passer la souris dessus pour voir le nom de la station.

Cliquer dessus pour voir les observations et prévisions météorologiques.

Pour changer de carte: cliquez sur les boutons verts avec une croix noire pour zoomer, sur le bouton vert avec un tiret pour effectuer un zoom arrière, ou sur les flèches vertes pour les cartes adjacentes.


METAR-TAF: